createdAt,value
2019-02-02T00:02:28.255Z,33.87
2019-02-02T00:07:34.193Z,34.80
2019-02-02T00:12:40.382Z,32.50
2019-02-02T00:17:46.500Z,29.90
2019-02-02T00:22:52.656Z,29.40
2019-02-02T00:27:58.605Z,30.50
2019-02-02T00:33:04.993Z,30.10
2019-02-02T00:38:11.083Z,28.50
2019-02-02T00:43:17.199Z,29.90
2019-02-02T00:48:23.266Z,28.43
2019-02-02T00:53:29.195Z,28.47
2019-02-02T00:58:35.489Z,29.20
2019-02-02T01:03:41.698Z,28.43
2019-02-02T01:08:47.624Z,29.37
2019-02-02T01:13:53.702Z,29.70
2019-02-02T01:18:59.775Z,29.00
2019-02-02T01:24:06.161Z,28.23
2019-02-02T01:29:12.136Z,29.33
2019-02-02T01:34:18.111Z,28.83
2019-02-02T01:39:24.116Z,28.33
2019-02-02T01:44:30.220Z,28.53
2019-02-02T01:49:36.219Z,28.70
2019-02-02T01:54:42.295Z,28.13
2019-02-02T01:59:48.247Z,28.67
2019-02-02T02:04:54.260Z,29.47
2019-02-02T02:10:00.361Z,28.47
2019-02-02T02:15:08.031Z,27.10
2019-02-02T02:20:14.900Z,27.73
2019-02-02T02:25:21.381Z,27.63
2019-02-02T02:30:27.401Z,27.07
2019-02-02T02:35:33.351Z,27.40
2019-02-02T02:40:39.523Z,28.63
2019-02-02T02:45:45.612Z,26.80
2019-02-02T02:50:51.563Z,27.33
2019-02-02T02:55:57.628Z,24.93
2019-02-02T03:01:03.744Z,25.90
2019-02-02T03:06:09.776Z,26.70
2019-02-02T03:11:16.919Z,26.40
2019-02-02T03:16:23.072Z,26.13
2019-02-02T03:21:29.141Z,26.57
2019-02-02T03:26:35.107Z,26.73
2019-02-02T03:31:41.188Z,26.57
2019-02-02T03:36:47.303Z,27.27
2019-02-02T03:41:53.222Z,26.67
2019-02-02T03:46:59.512Z,26.67
2019-02-02T03:52:05.584Z,25.90
2019-02-02T03:57:11.600Z,26.10
2019-02-02T04:02:17.565Z,26.17
2019-02-02T04:07:23.811Z,26.87
2019-02-02T04:12:29.990Z,25.17
2019-02-02T04:17:36.131Z,25.03
2019-02-02T04:22:42.164Z,27.07
2019-02-02T04:27:49.179Z,24.93
2019-02-02T04:32:55.104Z,28.10
2019-02-02T04:38:01.076Z,26.70
2019-02-02T04:43:07.271Z,26.90
2019-02-02T04:48:14.259Z,27.93
2019-02-02T04:53:20.317Z,25.63
2019-02-02T04:58:26.301Z,27.03
2019-02-02T05:03:32.384Z,27.97
2019-02-02T05:08:38.537Z,27.03
2019-02-02T05:13:44.839Z,27.80
2019-02-02T05:18:50.909Z,27.13
2019-02-02T05:23:57.002Z,28.20
2019-02-02T05:29:02.862Z,27.67
2019-02-02T05:34:08.861Z,27.57
2019-02-02T05:39:14.822Z,26.17
2019-02-02T05:44:20.965Z,27.67
2019-02-02T05:49:27.137Z,26.40
2019-02-02T05:54:33.042Z,27.00
2019-02-02T05:59:39.256Z,27.37
2019-02-02T06:04:45.205Z,28.70
2019-02-02T06:09:51.249Z,27.70
2019-02-02T06:14:57.324Z,30.40
2019-02-02T06:20:03.314Z,29.30
2019-02-02T06:25:10.395Z,28.07
2019-02-02T06:30:18.112Z,29.10
2019-02-02T06:35:24.073Z,27.53
2019-02-02T06:40:30.051Z,29.40
2019-02-02T06:45:36.954Z,27.80
2019-02-02T06:50:42.928Z,27.67
2019-02-02T06:55:48.901Z,28.07
2019-02-02T07:00:55.078Z,30.90
2019-02-02T07:06:01.147Z,31.70
2019-02-02T07:11:07.243Z,30.73
2019-02-02T07:16:13.220Z,31.07
2019-02-02T07:21:19.185Z,29.77
2019-02-02T07:26:25.348Z,27.43
2019-02-02T07:31:31.311Z,28.47
2019-02-02T07:36:37.402Z,28.53
2019-02-02T07:41:43.680Z,29.97
2019-02-02T07:46:49.899Z,27.73
2019-02-02T07:51:56.691Z,28.47
2019-02-02T07:57:02.863Z,29.43
2019-02-02T08:02:08.913Z,29.37
2019-02-02T08:07:15.661Z,31.63
2019-02-02T08:12:21.741Z,33.57
2019-02-02T08:17:27.754Z,32.97
2019-02-02T08:22:33.679Z,33.73
2019-02-02T08:27:39.943Z,35.70
2019-02-02T08:32:46.157Z,36.47
2019-02-02T08:37:53.268Z,36.70
2019-02-02T08:42:59.246Z,35.80
2019-02-02T08:48:05.285Z,36.80
2019-02-02T08:53:11.464Z,37.73
2019-02-02T08:58:19.384Z,43.33
2019-02-02T09:03:25.440Z,44.37
2019-02-02T09:08:31.578Z,47.13
2019-02-02T09:13:37.723Z,42.57
2019-02-02T09:18:43.786Z,42.30
2019-02-02T09:23:49.906Z,42.37
2019-02-02T09:28:55.932Z,40.50
2019-02-02T09:34:02.079Z,34.90
2019-02-02T09:39:09.321Z,42.67
2019-02-02T09:44:15.819Z,47.07
2019-02-02T09:49:21.905Z,38.17
2019-02-02T09:54:28.435Z,41.63
2019-02-02T09:59:34.680Z,40.57
2019-02-02T10:04:40.721Z,40.10
2019-02-02T10:09:47.038Z,46.87
2019-02-02T10:14:53.285Z,47.20
2019-02-02T10:19:59.406Z,38.60
2019-02-02T10:25:06.883Z,37.53
2019-02-02T10:30:22.711Z,36.03
2019-02-02T10:35:28.463Z,36.97
2019-02-02T10:40:34.564Z,34.37
2019-02-02T10:45:40.849Z,36.40
2019-02-02T10:50:47.250Z,38.93
2019-02-02T10:55:53.275Z,39.20
2019-02-02T11:00:59.239Z,36.47
2019-02-02T11:06:05.231Z,36.70
2019-02-02T11:11:11.168Z,38.10
2019-02-02T11:16:17.290Z,38.27
2019-02-02T11:21:23.337Z,35.87
2019-02-02T11:26:29.442Z,38.63
2019-02-02T11:31:35.519Z,36.97
2019-02-02T11:36:43.771Z,40.87
2019-02-02T11:41:49.384Z,40.00
2019-02-02T11:46:55.380Z,39.67
2019-02-02T11:52:01.310Z,41.30
2019-02-02T11:57:07.371Z,43.53
2019-02-02T12:02:14.892Z,43.43
2019-02-02T12:07:21.168Z,38.93
2019-02-02T12:12:27.077Z,32.90
2019-02-02T12:17:33.010Z,31.97
2019-02-02T12:22:38.959Z,32.43
2019-02-02T12:27:45.190Z,33.47
2019-02-02T12:32:51.232Z,35.03
2019-02-02T12:37:57.311Z,35.07
2019-02-02T12:43:03.280Z,36.67
2019-02-02T12:48:09.247Z,36.30
2019-02-02T12:53:15.644Z,34.77
2019-02-02T12:58:22.746Z,36.80
2019-02-02T13:03:28.804Z,36.60
2019-02-02T13:08:34.783Z,38.13
2019-02-02T13:13:42.698Z,37.13
2019-02-02T13:18:48.604Z,38.10
2019-02-02T13:23:54.874Z,38.37
2019-02-02T13:29:01.057Z,40.23
2019-02-02T13:34:08.280Z,38.07
2019-02-02T13:39:14.460Z,36.83
2019-02-02T13:44:20.583Z,38.00
2019-02-02T13:49:26.651Z,40.47
2019-02-02T13:54:32.725Z,37.37
2019-02-02T13:59:38.985Z,40.80
2019-02-02T14:04:45.074Z,37.77
2019-02-02T14:09:51.171Z,42.40
2019-02-02T14:14:57.221Z,48.47
2019-02-02T14:20:03.391Z,45.30
2019-02-02T14:25:09.707Z,44.53
2019-02-02T14:30:20.482Z,46.23
2019-02-02T14:35:28.473Z,47.47
2019-02-02T14:40:34.579Z,47.53
2019-02-02T14:45:40.789Z,40.47
2019-02-02T14:50:46.827Z,45.23
2019-02-02T14:55:52.978Z,32.37
2019-02-02T15:00:59.084Z,34.40
2019-02-02T15:06:05.242Z,41.83
2019-02-02T15:11:11.351Z,39.87
2019-02-02T15:16:17.394Z,37.50
2019-02-02T15:21:23.392Z,36.60
2019-02-02T15:26:29.460Z,36.13
2019-02-02T15:31:35.424Z,38.77
2019-02-02T15:36:41.500Z,36.63
2019-02-02T15:41:52.898Z,38.77
2019-02-02T15:46:55.166Z,37.03
2019-02-02T15:52:01.158Z,42.30
2019-02-02T15:57:07.150Z,37.87
2019-02-02T16:02:13.135Z,33.03
2019-02-02T16:07:19.291Z,33.40
2019-02-02T16:12:25.392Z,34.67
2019-02-02T16:17:31.434Z,33.97
2019-02-02T16:22:37.410Z,36.30
2019-02-02T16:27:43.516Z,39.00
2019-02-02T16:32:49.739Z,34.97
2019-02-02T16:37:55.805Z,36.20
2019-02-02T16:43:02.925Z,34.47
2019-02-02T16:48:10.457Z,38.77
2019-02-02T16:53:16.531Z,37.00
2019-02-02T16:58:22.779Z,38.37
2019-02-02T17:03:28.890Z,37.97
2019-02-02T17:08:35.715Z,36.63
2019-02-02T17:13:41.831Z,35.77
2019-02-02T17:18:47.917Z,35.93
2019-02-02T17:23:54.098Z,38.27
2019-02-02T17:29:00.157Z,37.83
2019-02-02T17:34:06.362Z,40.40
2019-02-02T17:39:12.494Z,37.87
2019-02-02T17:44:18.491Z,37.23
2019-02-02T17:49:24.549Z,38.83
2019-02-02T17:54:30.829Z,35.30
2019-02-02T17:59:38.299Z,36.10
2019-02-02T18:04:44.325Z,33.50
2019-02-02T18:09:50.569Z,34.13
2019-02-02T18:14:56.673Z,33.87
2019-02-02T18:20:02.799Z,32.10
2019-02-02T18:25:10.656Z,33.80
2019-02-02T18:30:18.520Z,34.70
2019-02-02T18:35:25.276Z,35.80
2019-02-02T18:40:31.510Z,33.83
2019-02-02T18:45:37.770Z,35.83
2019-02-02T18:50:43.950Z,34.23
2019-02-02T18:55:56.416Z,34.27
2019-02-02T19:01:02.430Z,35.73
2019-02-02T19:06:08.478Z,37.77
2019-02-02T19:11:14.709Z,37.10
2019-02-02T19:16:20.808Z,40.20
2019-02-02T19:21:26.908Z,42.27
2019-02-02T19:26:32.951Z,41.13
2019-02-02T19:31:38.979Z,39.63
2019-02-02T19:36:45.132Z,35.93
2019-02-02T19:41:51.188Z,37.23
2019-02-02T19:46:57.261Z,43.47
2019-02-02T19:52:03.373Z,42.27
2019-02-02T19:57:09.368Z,40.30
2019-02-02T20:02:15.413Z,47.07
2019-02-02T20:07:21.683Z,43.87
2019-02-02T20:12:27.746Z,40.53
2019-02-02T20:17:33.717Z,41.87
2019-02-02T20:22:39.860Z,37.97
2019-02-02T20:27:45.851Z,40.70
2019-02-02T20:32:52.054Z,38.30
2019-02-02T20:37:58.117Z,38.60
2019-02-02T20:43:07.106Z,36.07
2019-02-02T20:48:13.157Z,38.07
2019-02-02T20:53:19.231Z,37.03
2019-02-02T20:58:25.324Z,39.27
2019-02-02T21:03:31.450Z,39.40
2019-02-02T21:08:37.532Z,40.00
2019-02-02T21:13:43.641Z,40.93
2019-02-02T21:18:49.616Z,39.93
2019-02-02T21:23:55.642Z,38.90
2019-02-02T21:29:01.815Z,37.83
2019-02-02T21:34:08.184Z,42.40
2019-02-02T21:39:14.194Z,41.70
2019-02-02T21:44:20.154Z,44.77
2019-02-02T21:49:26.492Z,40.20
2019-02-02T21:54:32.596Z,36.23
2019-02-02T21:59:38.787Z,34.57
2019-02-02T22:04:44.772Z,33.53
2019-02-02T22:09:51.155Z,31.33
2019-02-02T22:14:57.407Z,30.97
2019-02-02T22:20:04.868Z,29.67
2019-02-02T22:25:16.138Z,28.77
2019-02-02T22:30:27.269Z,31.10
2019-02-02T22:35:34.216Z,34.87
2019-02-02T22:40:40.368Z,32.37
2019-02-02T22:45:46.451Z,29.37
2019-02-02T22:50:52.557Z,32.73
2019-02-02T22:55:58.580Z,35.07
2019-02-02T23:01:34.661Z,32.50
2019-02-02T23:07:10.855Z,32.60
2019-02-02T23:12:26.139Z,33.40
2019-02-02T23:17:32.386Z,32.33
2019-02-02T23:22:38.709Z,32.27
2019-02-02T23:27:44.912Z,31.53
2019-02-02T23:32:51.354Z,30.50
2019-02-02T23:37:57.573Z,31.13
2019-02-02T23:43:03.645Z,33.23
2019-02-02T23:48:09.609Z,34.33
2019-02-02T23:53:15.616Z,33.80
2019-02-02T23:58:21.640Z,34.03
